createdAt,value
2018-12-07T00:01:38.731Z,5.90
2018-12-07T00:04:07.703Z,5.90
2018-12-07T00:06:36.695Z,6.00
2018-12-07T00:09:07.168Z,6.00
2018-12-07T00:11:36.850Z,6.10
2018-12-07T00:14:05.843Z,6.10
2018-12-07T00:16:34.812Z,6.10
2018-12-07T00:19:03.804Z,6.00
2018-12-07T00:21:32.772Z,5.90
2018-12-07T00:24:01.757Z,5.80
2018-12-07T00:26:30.689Z,5.90
2018-12-07T00:28:59.600Z,5.90
2018-12-07T00:31:28.848Z,5.90
2018-12-07T00:33:57.858Z,5.90
2018-12-07T00:36:26.798Z,5.90
2018-12-07T00:38:56.092Z,5.90
2018-12-07T00:41:25.058Z,5.90
2018-12-07T00:43:54.868Z,5.80
2018-12-07T00:46:23.861Z,5.80
2018-12-07T00:48:52.786Z,5.80
2018-12-07T00:51:21.709Z,5.80
2018-12-07T00:53:50.805Z,5.80
2018-12-07T00:56:20.127Z,5.80
2018-12-07T00:58:49.827Z,5.70
2018-12-07T01:01:18.770Z,5.70
2018-12-07T01:03:47.659Z,5.70
2018-12-07T01:06:16.569Z,5.60
2018-12-07T01:08:45.515Z,5.60
2018-12-07T01:11:14.410Z,5.50
2018-12-07T01:13:43.350Z,5.60
2018-12-07T01:16:12.299Z,5.60
2018-12-07T01:18:41.223Z,5.70
2018-12-07T01:21:10.213Z,5.70
2018-12-07T01:23:39.311Z,5.70
2018-12-07T01:26:08.382Z,5.80
2018-12-07T01:28:37.249Z,5.90
2018-12-07T01:31:06.210Z,5.90
2018-12-07T01:33:35.088Z,6.00
2018-12-07T01:36:04.044Z,6.10
2018-12-07T01:38:33.003Z,6.20
2018-12-07T01:41:02.185Z,6.40
2018-12-07T01:43:31.110Z,6.30
2018-12-07T01:46:00.045Z,6.40
2018-12-07T01:48:29.075Z,6.40
2018-12-07T01:50:57.973Z,6.50
2018-12-07T01:53:27.112Z,6.50
2018-12-07T01:55:56.027Z,6.50
2018-12-07T01:58:24.924Z,6.40
2018-12-07T02:00:53.970Z,6.30
2018-12-07T02:03:23.166Z,6.40
2018-12-07T02:05:52.026Z,6.40
2018-12-07T02:08:21.030Z,6.30
2018-12-07T02:10:49.935Z,6.40
2018-12-07T02:13:18.857Z,6.40
2018-12-07T02:15:47.849Z,6.40
2018-12-07T02:18:16.718Z,6.50
2018-12-07T02:20:45.628Z,6.60
2018-12-07T02:23:14.550Z,6.50
2018-12-07T02:25:43.439Z,6.60
2018-12-07T02:28:12.439Z,6.70
2018-12-07T02:30:41.462Z,6.70
2018-12-07T02:33:10.379Z,6.60
2018-12-07T02:35:39.297Z,6.50
2018-12-07T02:38:08.372Z,6.50
2018-12-07T02:40:37.294Z,6.70
2018-12-07T02:43:06.279Z,6.70
2018-12-07T02:45:35.297Z,6.60
2018-12-07T02:48:04.511Z,6.60
2018-12-07T02:50:33.535Z,6.50
2018-12-07T02:53:02.511Z,6.40
2018-12-07T02:55:31.544Z,6.40
2018-12-07T02:58:00.574Z,6.40
2018-12-07T03:00:29.587Z,6.40
2018-12-07T03:02:58.543Z,6.50
2018-12-07T03:05:27.523Z,6.50
2018-12-07T03:07:56.527Z,6.60
2018-12-07T03:10:25.482Z,6.60
2018-12-07T03:12:54.385Z,6.60
2018-12-07T03:15:23.420Z,6.70
2018-12-07T03:17:52.345Z,6.80
2018-12-07T03:20:21.207Z,6.80
2018-12-07T03:22:50.298Z,6.70
2018-12-07T03:25:19.250Z,6.70
2018-12-07T03:27:48.186Z,6.70
2018-12-07T03:30:17.198Z,6.80
2018-12-07T03:32:46.082Z,6.90
2018-12-07T03:35:15.019Z,6.80
2018-12-07T03:37:43.970Z,6.80
2018-12-07T03:40:12.862Z,6.80
2018-12-07T03:42:41.779Z,6.90
2018-12-07T03:45:10.772Z,7.00
2018-12-07T03:47:39.675Z,6.90
2018-12-07T03:50:08.733Z,6.90
2018-12-07T03:52:37.699Z,6.90
2018-12-07T03:55:06.696Z,6.90
2018-12-07T03:57:35.581Z,6.90
2018-12-07T04:00:05.791Z,7.00
2018-12-07T04:02:34.654Z,6.80
2018-12-07T04:05:03.638Z,6.70
2018-12-07T04:07:32.664Z,6.80
2018-12-07T04:10:01.632Z,6.80
2018-12-07T04:12:30.576Z,6.90
2018-12-07T04:14:59.575Z,7.00
2018-12-07T04:17:28.450Z,7.00
2018-12-07T04:19:57.377Z,7.10
2018-12-07T04:22:26.325Z,7.20
2018-12-07T04:24:55.243Z,7.20
2018-12-07T04:27:24.268Z,7.20
2018-12-07T04:30:03.038Z,7.20
2018-12-07T04:32:31.978Z,7.20
2018-12-07T04:35:00.905Z,7.20
2018-12-07T04:37:29.837Z,7.10
2018-12-07T04:39:58.719Z,7.20
2018-12-07T04:42:27.671Z,7.30
2018-12-07T04:44:56.604Z,7.40
2018-12-07T04:47:25.526Z,7.40
2018-12-07T04:49:55.081Z,7.50
2018-12-07T04:52:24.085Z,7.60
2018-12-07T04:54:52.985Z,7.60
2018-12-07T04:57:22.300Z,7.60
2018-12-07T04:59:52.088Z,7.60
2018-12-07T05:02:21.025Z,7.70
2018-12-07T05:04:50.048Z,7.70
2018-12-07T05:07:19.068Z,7.70
2018-12-07T05:09:47.974Z,7.70
2018-12-07T05:12:16.916Z,7.70
2018-12-07T05:14:46.030Z,7.60
2018-12-07T05:17:14.959Z,7.70
2018-12-07T05:19:43.849Z,7.80
2018-12-07T05:22:12.819Z,7.90
2018-12-07T05:24:41.732Z,7.90
2018-12-07T05:27:10.817Z,7.90
2018-12-07T05:29:39.865Z,7.90
2018-12-07T05:32:08.795Z,8.00
2018-12-07T05:34:37.749Z,8.00
2018-12-07T05:37:06.838Z,7.90
2018-12-07T05:39:35.821Z,8.00
2018-12-07T05:42:05.014Z,8.00
2018-12-07T05:44:33.953Z,8.10
2018-12-07T05:47:02.892Z,8.10
2018-12-07T05:49:31.834Z,8.10
2018-12-07T05:52:00.788Z,8.10
2018-12-07T05:54:29.729Z,8.20
2018-12-07T05:56:58.824Z,8.20
2018-12-07T05:59:27.892Z,8.20
2018-12-07T06:01:56.942Z,8.20
2018-12-07T06:04:25.892Z,8.10
2018-12-07T06:06:54.982Z,8.20
2018-12-07T06:09:23.926Z,8.30
2018-12-07T06:11:52.918Z,8.30
2018-12-07T06:14:21.864Z,8.20
2018-12-07T06:16:50.777Z,8.20
2018-12-07T06:19:19.680Z,8.30
2018-12-07T06:21:48.634Z,8.30
2018-12-07T06:24:17.560Z,8.30
2018-12-07T06:26:46.589Z,8.30
2018-12-07T06:29:15.707Z,8.30
2018-12-07T06:31:45.567Z,8.40
2018-12-07T06:34:14.466Z,8.40
2018-12-07T06:36:43.444Z,8.40
2018-12-07T06:39:12.994Z,8.50
2018-12-07T06:41:42.096Z,8.50
2018-12-07T06:44:11.138Z,8.60
2018-12-07T06:46:40.097Z,8.70
2018-12-07T06:49:10.926Z,8.70
2018-12-07T06:51:40.719Z,8.70
2018-12-07T06:54:09.644Z,8.70
2018-12-07T06:56:38.683Z,8.70
2018-12-07T06:59:07.613Z,8.70
2018-12-07T07:01:36.579Z,8.80
2018-12-07T07:04:05.742Z,8.70
2018-12-07T07:06:34.662Z,8.70
2018-12-07T07:09:05.683Z,8.80
2018-12-07T07:11:34.674Z,8.90
2018-12-07T07:14:03.589Z,8.90
2018-12-07T07:16:32.563Z,8.80
2018-12-07T07:19:01.479Z,8.80
2018-12-07T07:21:30.900Z,8.80
2018-12-07T07:23:59.873Z,8.80
2018-12-07T07:26:28.801Z,8.80
2018-12-07T07:28:57.718Z,8.90
2018-12-07T07:31:26.649Z,8.90
2018-12-07T07:33:55.592Z,9.00
2018-12-07T07:36:25.427Z,9.00
2018-12-07T07:38:54.431Z,9.10
2018-12-07T07:41:23.385Z,9.20
2018-12-07T07:43:52.862Z,9.20
2018-12-07T07:46:22.250Z,9.20
2018-12-07T07:48:51.302Z,9.20
2018-12-07T07:51:20.283Z,9.20
2018-12-07T07:53:49.235Z,9.30
2018-12-07T07:56:18.189Z,9.40
2018-12-07T07:58:47.139Z,9.50
2018-12-07T08:01:16.169Z,9.50
2018-12-07T08:03:45.160Z,9.50
2018-12-07T08:06:14.074Z,9.50
2018-12-07T08:08:43.062Z,9.50
2018-12-07T08:11:12.049Z,9.50
2018-12-07T08:13:41.004Z,9.50
2018-12-07T08:16:09.966Z,9.60
2018-12-07T08:18:38.932Z,9.80
2018-12-07T08:21:08.097Z,9.80
2018-12-07T08:23:37.101Z,9.80
2018-12-07T08:26:06.469Z,9.90
2018-12-07T08:28:35.362Z,9.80
2018-12-07T08:31:04.329Z,9.90
2018-12-07T08:33:33.222Z,9.80
2018-12-07T08:36:02.121Z,9.90
2018-12-07T08:38:31.033Z,9.80
2018-12-07T08:40:59.942Z,9.90
2018-12-07T08:43:28.964Z,9.90
2018-12-07T08:45:57.967Z,10.10
2018-12-07T08:48:26.947Z,10.20
2018-12-07T08:50:55.872Z,10.20
2018-12-07T08:53:24.848Z,10.30
2018-12-07T08:55:53.919Z,10.30
2018-12-07T08:58:22.829Z,10.20
2018-12-07T09:00:51.810Z,10.30
2018-12-07T09:03:20.755Z,10.30
2018-12-07T09:05:49.690Z,10.30
2018-12-07T09:08:18.674Z,10.50
2018-12-07T09:10:47.581Z,10.50
2018-12-07T09:13:17.325Z,10.50
2018-12-07T09:15:46.324Z,10.60
2018-12-07T09:18:15.350Z,10.70
2018-12-07T09:20:44.412Z,10.80
2018-12-07T09:23:13.522Z,10.80
2018-12-07T09:25:42.513Z,10.90
2018-12-07T09:28:11.457Z,11.00
2018-12-07T09:30:41.247Z,11.10
2018-12-07T09:33:10.438Z,11.10
2018-12-07T09:35:40.758Z,11.20
2018-12-07T09:38:13.134Z,11.10
2018-12-07T09:40:40.875Z,11.10
2018-12-07T09:43:09.869Z,11.00
2018-12-07T09:45:38.872Z,11.00
2018-12-07T09:48:07.944Z,11.20
2018-12-07T09:50:37.794Z,11.20
2018-12-07T09:53:06.785Z,11.30
2018-12-07T09:55:35.795Z,11.30
2018-12-07T09:58:04.997Z,11.30
2018-12-07T10:00:34.042Z,11.40
2018-12-07T10:03:03.016Z,11.40
2018-12-07T10:05:32.008Z,11.20
2018-12-07T10:08:00.926Z,11.10
2018-12-07T10:10:29.866Z,11.20
2018-12-07T10:12:58.805Z,11.30
2018-12-07T10:15:27.985Z,11.30
2018-12-07T10:17:56.942Z,11.20
2018-12-07T10:20:25.920Z,11.20
2018-12-07T10:22:54.859Z,11.20
2018-12-07T10:25:23.943Z,11.20
2018-12-07T10:27:52.876Z,11.20
2018-12-07T10:30:21.772Z,11.20
2018-12-07T10:32:50.790Z,11.20
2018-12-07T10:35:19.759Z,11.30
2018-12-07T10:40:42.657Z,11.60
2018-12-07T10:43:11.641Z,11.70
2018-12-07T10:45:40.683Z,11.70
2018-12-07T10:48:09.790Z,11.60
2018-12-07T10:50:38.746Z,11.70
2018-12-07T10:53:07.843Z,11.70
2018-12-07T10:55:36.885Z,11.70
2018-12-07T10:58:06.023Z,11.70
2018-12-07T11:00:40.259Z,11.60
2018-12-07T11:03:14.482Z,11.50
2018-12-07T11:05:47.771Z,11.50
2018-12-07T11:08:21.873Z,11.60
2018-12-07T11:10:56.758Z,11.70
2018-12-07T11:13:31.006Z,11.70
2018-12-07T11:16:05.151Z,11.60
2018-12-07T11:18:39.186Z,11.70
2018-12-07T11:21:13.645Z,11.80
2018-12-07T11:23:47.730Z,11.90
2018-12-07T11:26:21.824Z,11.90
2018-12-07T11:28:55.991Z,11.80
2018-12-07T11:31:30.210Z,11.90
2018-12-07T11:34:06.582Z,11.80
2018-12-07T11:36:35.708Z,11.90
2018-12-07T11:39:08.051Z,11.90
2018-12-07T11:41:37.180Z,11.80
2018-12-07T11:44:06.328Z,11.90
2018-12-07T11:46:35.637Z,11.90
2018-12-07T11:49:05.742Z,11.90
2018-12-07T11:51:34.746Z,11.70
2018-12-07T11:54:03.893Z,11.70
2018-12-07T11:56:33.078Z,11.70
2018-12-07T11:59:02.099Z,11.80
2018-12-07T12:01:31.160Z,11.80
2018-12-07T12:04:00.271Z,11.80
2018-12-07T12:06:29.363Z,11.80
2018-12-07T12:08:58.429Z,11.80
2018-12-07T12:11:27.518Z,11.80
2018-12-07T12:13:56.697Z,11.90
2018-12-07T12:16:25.741Z,11.80
2018-12-07T12:18:55.242Z,11.80
2018-12-07T12:21:24.549Z,11.80
2018-12-07T12:23:54.018Z,11.90
2018-12-07T12:26:23.372Z,11.80
2018-12-07T12:28:52.508Z,11.80
2018-12-07T12:31:21.728Z,11.70
2018-12-07T12:33:51.054Z,11.70
2018-12-07T12:36:20.232Z,11.90
2018-12-07T12:38:50.157Z,11.90
2018-12-07T12:41:19.418Z,12.00
2018-12-07T12:43:48.567Z,12.00
2018-12-07T12:46:17.932Z,12.00
2018-12-07T12:48:47.220Z,11.90
2018-12-07T12:51:16.343Z,11.80
2018-12-07T12:53:45.508Z,11.80
2018-12-07T12:56:14.754Z,11.90
2018-12-07T12:58:44.035Z,12.00
2018-12-07T13:01:13.152Z,11.90
2018-12-07T13:03:42.371Z,11.90
2018-12-07T13:06:11.508Z,11.90
2018-12-07T13:08:40.727Z,11.90
2018-12-07T13:11:09.819Z,11.90
2018-12-07T13:13:38.892Z,12.00
2018-12-07T13:16:08.119Z,11.80
2018-12-07T13:18:37.236Z,11.90
2018-12-07T13:21:06.401Z,12.00
2018-12-07T13:23:35.541Z,12.00
2018-12-07T13:28:58.822Z,11.90
2018-12-07T13:31:28.082Z,12.00
2018-12-07T13:33:57.224Z,11.90
2018-12-07T13:36:26.407Z,12.00
2018-12-07T13:38:55.432Z,12.00
2018-12-07T13:41:24.778Z,11.90
2018-12-07T13:43:54.065Z,11.90
2018-12-07T13:46:23.570Z,12.00
2018-12-07T13:48:52.794Z,12.10
2018-12-07T13:51:22.004Z,12.00
2018-12-07T13:53:51.312Z,12.00
2018-12-07T13:56:20.504Z,12.10
2018-12-07T13:58:49.689Z,12.00
2018-12-07T14:01:19.129Z,12.00
2018-12-07T14:03:48.242Z,12.00
2018-12-07T14:06:17.391Z,12.10
2018-12-07T14:08:46.700Z,11.90
2018-12-07T14:11:15.958Z,11.90
2018-12-07T14:13:45.004Z,11.80
2018-12-07T14:16:14.216Z,11.80
2018-12-07T14:18:43.307Z,11.70
2018-12-07T14:21:12.378Z,11.80
2018-12-07T14:23:41.433Z,11.80
2018-12-07T14:26:10.581Z,11.80
2018-12-07T14:28:39.662Z,11.60
2018-12-07T14:31:08.938Z,11.50
2018-12-07T14:33:39.140Z,11.30
2018-12-07T14:36:09.360Z,11.40
2018-12-07T14:38:38.787Z,11.50
2018-12-07T14:41:08.091Z,11.40
2018-12-07T14:43:37.411Z,11.30
2018-12-07T14:46:07.409Z,11.30
2018-12-07T14:48:36.683Z,11.20
2018-12-07T14:51:06.060Z,11.20
2018-12-07T14:53:35.528Z,11.20
2018-12-07T14:56:05.522Z,11.20
2018-12-07T14:58:34.642Z,11.10
2018-12-07T15:01:03.638Z,11.20
2018-12-07T15:03:32.889Z,11.10
2018-12-07T15:06:02.041Z,11.10
2018-12-07T15:08:31.335Z,11.10
2018-12-07T15:11:00.541Z,11.10
2018-12-07T15:13:30.054Z,11.00
2018-12-07T15:15:59.224Z,11.00
2018-12-07T15:18:28.487Z,10.90
2018-12-07T15:20:57.751Z,10.80
2018-12-07T15:23:27.182Z,10.90
2018-12-07T15:25:56.625Z,10.90
2018-12-07T15:28:25.793Z,10.90
2018-12-07T15:30:55.064Z,11.00
2018-12-07T15:33:24.109Z,11.10
2018-12-07T15:35:53.177Z,11.00
2018-12-07T15:38:22.361Z,11.10
2018-12-07T15:40:51.535Z,11.10
2018-12-07T15:43:20.688Z,11.20
2018-12-07T15:45:49.927Z,11.20
2018-12-07T15:48:19.215Z,11.20
2018-12-07T15:50:48.949Z,11.30
2018-12-07T15:53:18.478Z,11.20
2018-12-07T15:55:47.988Z,11.20
2018-12-07T16:00:51.337Z,11.20
2018-12-07T16:03:20.814Z,11.30
2018-12-07T16:05:50.026Z,11.30
2018-12-07T16:08:24.988Z,11.40
2018-12-07T16:10:50.522Z,11.40
2018-12-07T16:13:19.870Z,11.40
2018-12-07T16:15:49.280Z,11.30
2018-12-07T16:18:18.660Z,11.30
2018-12-07T16:20:48.134Z,11.20
2018-12-07T16:23:17.328Z,11.20
2018-12-07T16:25:47.474Z,11.10
2018-12-07T16:28:16.646Z,11.10
2018-12-07T16:30:45.984Z,11.00
2018-12-07T16:33:15.408Z,10.90
2018-12-07T16:35:44.778Z,10.80
2018-12-07T16:38:14.210Z,10.70
2018-12-07T16:40:43.439Z,10.70
2018-12-07T16:43:12.573Z,10.70
2018-12-07T16:45:42.119Z,10.60
2018-12-07T16:48:11.602Z,10.60
2018-12-07T16:50:40.833Z,10.60
2018-12-07T16:53:10.056Z,10.60
2018-12-07T16:55:39.272Z,10.60
2018-12-07T16:58:09.578Z,10.60
2018-12-07T17:00:39.396Z,10.60
2018-12-07T17:03:08.822Z,10.60
2018-12-07T17:05:38.029Z,10.60
2018-12-07T17:08:07.393Z,10.60
2018-12-07T17:10:36.613Z,10.60
2018-12-07T17:13:05.777Z,10.50
2018-12-07T17:15:34.884Z,10.50
2018-12-07T17:18:04.419Z,10.50
2018-12-07T17:20:33.585Z,10.40
2018-12-07T17:23:02.602Z,10.30
2018-12-07T17:25:31.782Z,10.10
2018-12-07T17:28:00.845Z,10.20
2018-12-07T17:30:30.219Z,10.20
2018-12-07T17:32:59.419Z,10.20
2018-12-07T17:35:28.434Z,10.20
2018-12-07T17:37:57.639Z,10.10
2018-12-07T17:40:26.837Z,10.00
2018-12-07T17:42:55.890Z,10.00
2018-12-07T17:45:25.139Z,10.10
2018-12-07T17:47:54.779Z,10.10
2018-12-07T17:50:23.945Z,10.10
2018-12-07T17:52:53.064Z,10.00
2018-12-07T17:55:22.404Z,10.10
2018-12-07T17:57:51.515Z,10.10
2018-12-07T18:00:20.963Z,10.00
2018-12-07T18:02:50.180Z,10.00
2018-12-07T18:05:19.235Z,10.00
2018-12-07T18:07:48.415Z,10.00
2018-12-07T18:10:17.841Z,10.00
2018-12-07T18:12:47.176Z,10.00
2018-12-07T18:15:16.273Z,10.00
2018-12-07T18:17:45.359Z,10.00
2018-12-07T18:20:14.717Z,10.10
2018-12-07T18:22:43.982Z,10.10
2018-12-07T18:25:13.416Z,10.00
2018-12-07T18:27:42.619Z,10.00
2018-12-07T18:30:11.894Z,10.00
2018-12-07T18:32:41.243Z,10.00
2018-12-07T18:35:10.345Z,10.00
2018-12-07T18:37:39.676Z,10.10
2018-12-07T18:40:09.219Z,10.00
2018-12-07T18:42:38.661Z,10.00
2018-12-07T18:45:08.279Z,10.00
2018-12-07T18:47:38.277Z,10.00
2018-12-07T18:50:08.866Z,10.00
2018-12-07T18:52:38.240Z,10.00
2018-12-07T18:55:09.387Z,10.00
2018-12-07T18:57:38.479Z,10.00
2018-12-07T19:00:08.957Z,10.10
2018-12-07T19:02:38.054Z,10.10
2018-12-07T19:05:07.330Z,10.00
2018-12-07T19:07:37.058Z,10.00
2018-12-07T19:10:06.839Z,9.90
2018-12-07T19:12:36.129Z,9.90
2018-12-07T19:15:06.141Z,10.00
2018-12-07T19:17:35.455Z,10.00
2018-12-07T19:20:05.449Z,10.00
2018-12-07T19:22:34.854Z,10.00
2018-12-07T19:25:04.519Z,10.10
2018-12-07T19:27:34.385Z,10.10
2018-12-07T19:30:04.620Z,10.10
2018-12-07T19:32:33.678Z,10.00
2018-12-07T19:35:02.931Z,10.00
2018-12-07T19:37:32.328Z,10.10
2018-12-07T19:40:01.348Z,10.10
2018-12-07T19:42:30.618Z,10.10
2018-12-07T19:45:00.114Z,10.10
2018-12-07T19:47:29.381Z,10.20
2018-12-07T19:49:58.583Z,10.20
2018-12-07T19:52:28.066Z,10.20
2018-12-07T19:54:57.162Z,10.20
2018-12-07T19:57:26.310Z,10.30
2018-12-07T19:59:55.610Z,10.30
2018-12-07T20:02:24.709Z,10.30
2018-12-07T20:04:53.980Z,10.30
2018-12-07T20:07:23.260Z,10.20
2018-12-07T20:09:52.589Z,10.20
2018-12-07T20:12:22.045Z,10.20
2018-12-07T20:14:51.276Z,10.10
2018-12-07T20:17:20.421Z,10.10
2018-12-07T20:19:49.831Z,10.20
2018-12-07T20:22:19.203Z,10.20
2018-12-07T20:24:49.412Z,10.20
2018-12-07T20:27:18.779Z,10.20
2018-12-07T20:29:49.117Z,10.20
2018-12-07T20:32:19.406Z,10.10
2018-12-07T20:34:48.815Z,10.20
2018-12-07T20:37:18.250Z,10.30
2018-12-07T20:39:48.089Z,10.40
2018-12-07T20:42:18.527Z,10.30
2018-12-07T20:44:47.814Z,10.40
2018-12-07T20:47:24.594Z,10.30
2018-12-07T20:49:48.339Z,10.40
2018-12-07T20:52:17.932Z,10.40
2018-12-07T20:54:47.363Z,10.30
2018-12-07T20:57:17.464Z,10.30
2018-12-07T20:59:46.696Z,10.30
2018-12-07T21:02:15.954Z,10.30
2018-12-07T21:04:46.318Z,10.30
2018-12-07T21:09:33.619Z,10.30
2018-12-07T21:12:36.093Z,10.30
2018-12-07T21:15:05.303Z,10.20
2018-12-07T21:17:37.588Z,10.20
2018-12-07T21:20:14.536Z,10.20
2018-12-07T21:22:44.029Z,10.20
2018-12-07T21:25:13.500Z,10.30
2018-12-07T21:27:42.722Z,10.40
2018-12-07T21:30:54.365Z,10.30
2018-12-07T21:33:43.619Z,10.30
2018-12-07T21:36:45.153Z,10.20
2018-12-07T21:41:26.270Z,10.20
2018-12-07T21:43:55.733Z,10.20
2018-12-07T21:46:25.553Z,10.20
2018-12-07T21:48:55.201Z,10.20
2018-12-07T21:51:36.237Z,10.30
2018-12-07T21:54:05.698Z,10.40
2018-12-07T21:56:35.000Z,10.40
2018-12-07T21:59:04.335Z,10.30
2018-12-07T22:01:33.583Z,10.40
2018-12-07T22:04:03.611Z,10.40
2018-12-07T22:06:34.020Z,10.50
2018-12-07T22:09:04.278Z,10.50
2018-12-07T22:11:33.536Z,10.50
2018-12-07T22:14:03.638Z,10.50
2018-12-07T22:16:32.810Z,10.60
2018-12-07T22:19:02.218Z,10.50
2018-12-07T22:21:31.686Z,10.50
2018-12-07T22:24:00.952Z,10.50
2018-12-07T22:26:30.158Z,10.40
2018-12-07T22:28:59.472Z,10.30
2018-12-07T22:31:28.844Z,10.30
2018-12-07T22:33:57.970Z,10.20
2018-12-07T22:36:27.257Z,10.30
2018-12-07T22:38:56.347Z,10.20
2018-12-07T22:41:25.525Z,10.20
2018-12-07T22:43:55.804Z,10.20
2018-12-07T22:46:25.122Z,10.10
2018-12-07T22:48:54.515Z,10.10
2018-12-07T22:51:32.915Z,10.20
2018-12-07T22:54:02.052Z,10.20
2018-12-07T22:56:31.168Z,10.20
2018-12-07T22:59:00.394Z,10.20
2018-12-07T23:01:29.749Z,10.20
2018-12-07T23:03:59.024Z,10.20
2018-12-07T23:06:32.974Z,10.20
2018-12-07T23:09:15.986Z,9.90
2018-12-07T23:11:45.076Z,9.80
2018-12-07T23:14:14.086Z,9.80
2018-12-07T23:16:43.206Z,9.80
2018-12-07T23:19:12.336Z,9.70
2018-12-07T23:21:41.370Z,9.60
2018-12-07T23:24:10.477Z,9.60
2018-12-07T23:26:39.563Z,9.70
2018-12-07T23:29:18.494Z,9.90
2018-12-07T23:31:47.561Z,9.90
2018-12-07T23:34:16.607Z,9.90
2018-12-07T23:36:45.892Z,10.00
2018-12-07T23:39:14.974Z,10.00
2018-12-07T23:41:44.712Z,10.10
2018-12-07T23:44:13.775Z,10.10
2018-12-07T23:46:42.818Z,10.00
2018-12-07T23:49:11.886Z,10.00
2018-12-07T23:51:40.922Z,9.90
2018-12-07T23:54:10.959Z,9.90
2018-12-07T23:56:40.535Z,9.90
2018-12-07T23:59:09.583Z,9.80
